Wanda, Nebraska
Current Conditions -  °F | °C
As of 5:53 PM on Friday 24 Oct 2014 (Local Time) from KHSI Reporting Station
Clear Clear  
Wind Chill: 76°   Ceiling: Unl
Heat Index: 76°   Visibility: 10mi
Dew Point: 48°   Wind: 5mph
Humidity: 37%   Direction: 350°N
Pressure: 29.96"   Gusts: NA
Location:  40.6115°N, 98.6672°W
Report Text: KHSI 242253Z AUTO 35004KT 10SM CLR 24/09 A2996 RMK AO2 SLP134 T02440089
Loading
Personal Weather Stations






























Interactive Weather Map
Tropical Storm Tracking
New forecast layout! Learn more

10-Day Weather Forecast

Advertisements
Track Severe Weather on mobile